Time;durP1;ratioP1;P1;durP2;ratioP2;P2;SDS_P1;SDS_P2;PMS_P1;PMS_P2;Temp;Humidity;BMP_temperature;BMP_pressure;BME280_temperature;BME280_humidity;BME280_pressure;Samples;Min_cycle;Max_cycle;Signal;HPM_P1;HPM_P2
2022/03/21 00:00:39;;;;;;;;;53.50;42.25;;;;;13.18;60.74;102385.84;4993047;28;45353;-76
2022/03/21 00:03:07;;;;;;;;;48.50;37.25;;;;;13.16;60.85;102377.06;4998908;28;45312;-71
2022/03/21 00:05:33;;;;;;;;;59.00;45.00;;;;;13.18;60.10;102384.94;5013131;28;45356;-77
2022/03/21 00:07:59;;;;;;;;;53.00;43.00;;;;;13.03;60.37;102364.13;5013678;27;45400;-76
2022/03/21 00:10:25;;;;;;;;;49.00;41.00;;;;;13.09;60.46;102382.72;4992994;28;46082;-75
2022/03/21 00:12:51;;;;;;;;;54.25;43.00;;;;;13.05;60.64;102376.44;4992761;28;45410;-77
2022/03/21 00:15:18;;;;;;;;;52.25;42.25;;;;;13.06;60.83;102386.03;4999044;28;45414;-77
2022/03/21 00:17:44;;;;;;;;;52.75;43.00;;;;;13.05;60.88;102384.25;5013336;28;45603;-77
2022/03/21 00:20:15;;;;;;;;;54.00;41.50;;;;;13.04;60.97;102394.53;5093808;27;45935;-78
2022/03/21 00:22:40;;;;;;;;;56.25;42.75;;;;;12.99;61.31;102387.38;5096528;27;45360;-77
2022/03/21 00:25:08;;;;;;;;;55.75;43.00;;;;;12.98;61.83;102393.38;5002042;27;45448;-76
2022/03/21 00:27:35;;;;;;;;;54.75;42.75;;;;;12.92;62.14;102386.91;4993032;28;45573;-79
2022/03/21 00:30:02;;;;;;;;;56.00;43.75;;;;;12.91;62.47;102380.78;4997910;28;45526;-76
2022/03/21 00:32:28;;;;;;;;;49.25;41.50;;;;;12.90;63.42;102386.81;5012483;28;45953;-78
2022/03/21 00:34:54;;;;;;;;;55.25;44.50;;;;;12.90;62.67;102388.50;5012257;27;45439;-73
2022/03/21 00:37:20;;;;;;;;;54.25;42.00;;;;;12.83;63.42;102387.22;5012619;28;45386;-77
2022/03/21 00:39:46;;;;;;;;;54.50;41.50;;;;;12.81;63.97;102383.63;5012472;27;46157;-76
2022/03/21 00:42:12;;;;;;;;;57.25;45.00;;;;;12.76;64.42;102372.06;5011953;27;45312;-72
2022/03/21 00:44:38;;;;;;;;;56.50;45.50;;;;;12.82;63.27;102380.22;5010402;28;45327;-72
2022/03/21 00:47:04;;;;;;;;;60.00;45.50;;;;;12.78;65.13;102381.75;5012344;28;45402;-72
2022/03/21 00:49:30;;;;;;;;;55.75;44.75;;;;;12.82;65.03;102386.34;5010816;28;45394;-76
2022/03/21 00:51:55;;;;;;;;;52.50;42.50;;;;;12.80;65.38;102372.34;4992109;28;45319;-74
2022/03/21 00:54:21;;;;;;;;;55.00;42.50;;;;;12.79;65.63;102372.25;4975498;28;45319;-75
2022/03/21 00:56:47;;;;;;;;;54.25;42.00;;;;;12.82;65.19;102381.13;4996354;28;45342;-72
2022/03/21 00:59:12;;;;;;;;;49.75;40.50;;;;;12.80;66.00;102379.22;5053220;27;45902;-76
2022/03/21 01:01:38;;;;;;;;;59.00;45.50;;;;;12.79;66.31;102374.88;5099198;27;45418;-75
2022/03/21 01:04:04;;;;;;;;;48.75;39.25;;;;;12.80;66.83;102384.44;5099126;27;45819;-78
2022/03/21 01:06:29;;;;;;;;;55.50;43.75;;;;;12.76;66.73;102377.25;4996531;27;45280;-76
2022/03/21 01:08:55;;;;;;;;;55.75;44.00;;;;;12.74;66.67;102374.56;4994959;28;46579;-73
2022/03/21 01:11:22;;;;;;;;;55.00;43.25;;;;;12.71;67.31;102382.19;4995197;27;45424;-76
2022/03/21 01:13:49;;;;;;;;;55.50;45.00;;;;;12.63;68.03;102386.03;5021417;27;45521;-77
2022/03/21 01:16:15;;;;;;;;;55.50;45.00;;;;;12.62;68.37;102390.31;5099634;27;45503;-75
2022/03/21 01:18:44;;;;;;;;;52.75;42.50;;;;;12.56;67.47;102382.13;5098885;27;46175;-75
2022/03/21 01:21:11;;;;;;;;;55.00;43.75;;;;;12.57;67.89;102381.34;5098671;27;45897;-76
2022/03/21 01:23:36;;;;;;;;;55.00;43.00;;;;;12.56;67.30;102382.13;5096513;27;45308;-76
2022/03/21 01:26:02;;;;;;;;;59.25;44.00;;;;;12.56;67.65;102381.22;4975397;28;45515;-74
2022/03/21 01:28:28;;;;;;;;;52.25;42.50;;;;;12.51;68.46;102374.06;4975427;28;46216;-72
2022/03/21 01:30:53;;;;;;;;;53.25;42.50;;;;;12.58;68.34;102379.63;4975236;28;45253;-75
2022/03/21 01:33:19;;;;;;;;;53.50;43.25;;;;;12.55;67.49;102377.75;4981518;28;45326;-73
2022/03/21 01:35:44;;;;;;;;;55.75;43.50;;;;;12.58;67.93;102383.09;5015299;27;45201;-78
2022/03/21 01:38:10;;;;;;;;;53.75;43.00;;;;;12.54;67.76;102383.75;5014427;28;45242;-72
2022/03/21 01:40:36;;;;;;;;;53.75;42.50;;;;;12.48;67.68;102381.66;5014601;28;46589;-72
2022/03/21 01:43:01;;;;;;;;;58.00;45.50;;;;;12.49;68.35;102374.75;5008188;27;45515;-72
2022/03/21 01:45:28;;;;;;;;;50.25;40.75;;;;;12.43;68.00;102382.16;4995121;28;45359;-75
2022/03/21 01:47:54;;;;;;;;;52.00;42.75;;;;;12.45;68.32;102384.06;4995182;27;45995;-72
2022/03/21 01:50:20;;;;;;;;;53.25;42.00;;;;;12.35;68.08;102361.81;4994781;27;45396;-76
2022/03/21 01:52:46;;;;;;;;;55.75;43.00;;;;;12.42;67.45;102389.03;4995225;28;45342;-76
2022/03/21 01:57:59;;;;;;;;;52.75;43.00;;;;;12.40;67.91;102380.28;5014092;28;45338;-77
2022/03/21 02:00:25;;;;;;;;;55.00;44.50;;;;;12.41;68.55;102381.16;5014240;28;45817;-71
2022/03/21 02:02:51;;;;;;;;;51.00;41.25;;;;;12.46;68.59;102390.16;5014045;28;45192;-72
2022/03/21 02:05:17;;;;;;;;;51.75;42.50;;;;;12.46;68.82;102384.97;5014847;28;45560;-73
2022/03/21 02:07:44;;;;;;;;;51.25;40.00;;;;;12.39;67.96;102375.88;5013403;27;45921;-72
2022/03/21 02:10:10;;;;;;;;;50.50;40.25;;;;;12.38;68.55;102382.78;5013810;27;45402;-72
2022/03/21 02:12:36;;;;;;;;;53.50;41.25;;;;;12.43;68.26;102384.78;5012655;27;45418;-73
2022/03/21 02:15:03;;;;;;;;;52.25;41.50;;;;;12.37;68.10;102386.16;5009033;28;45431;-73
2022/03/21 02:17:30;;;;;;;;;55.25;42.50;;;;;12.34;68.31;102388.59;4994309;28;45242;-71
2022/03/21 02:19:59;;;;;;;;;52.25;42.75;;;;;12.29;69.40;102384.78;4994132;28;45857;-72
2022/03/21 02:22:58;;;;;;;;;49.25;39.25;;;;;12.32;68.82;102385.00;4994334;28;45347;-74
2022/03/21 02:25:27;;;;;;;;;55.25;44.50;;;;;12.33;69.16;102381.59;5008762;28;45347;-73
2022/03/21 02:27:56;;;;;;;;;52.50;41.75;;;;;12.29;69.04;102374.41;5011711;27;46000;-76
2022/03/21 02:30:23;;;;;;;;;53.00;42.00;;;;;12.33;68.97;102385.88;5014845;27;45930;-76
2022/03/21 02:32:49;;;;;;;;;52.75;42.25;;;;;12.28;69.00;102374.31;5095992;27;45280;-71
2022/03/21 02:35:16;;;;;;;;;50.25;41.00;;;;;12.33;69.02;102378.09;5098361;27;45208;-73
2022/03/21 02:37:45;;;;;;;;;50.75;41.25;;;;;12.33;68.53;102372.91;5097205;27;46081;-72
2022/03/21 02:40:11;;;;;;;;;48.00;38.25;;;;;12.28;68.72;102374.31;4974452;28;46032;-76
2022/03/21 02:42:37;;;;;;;;;50.00;40.75;;;;;12.23;69.02;102368.84;4984035;28;45245;-76
2022/03/21 02:45:04;;;;;;;;;55.25;42.75;;;;;12.19;69.06;102356.44;5014030;27;45393;-73
2022/03/21 02:47:29;;;;;;;;;51.25;41.50;;;;;12.18;69.45;102355.56;5013715;27;45553;-77
2022/03/21 02:49:57;;;;;;;;;54.00;40.75;;;;;12.15;69.30;102360.56;5013668;27;45206;-74
2022/03/21 02:52:26;;;;;;;;;53.50;42.75;;;;;12.10;69.36;102361.94;4999092;28;45319;-71
2022/03/21 02:54:51;;;;;;;;;56.25;42.00;;;;;12.09;69.90;102370.56;4994289;27;45323;-77
2022/03/21 02:57:17;;;;;;;;;51.50;41.50;;;;;12.03;69.59;102363.28;4994251;28;45281;-77
2022/03/21 02:59:43;;;;;;;;;51.00;40.50;;;;;12.04;70.28;102371.97;4993916;28;45258;-70
2022/03/21 03:02:09;;;;;;;;;51.00;41.50;;;;;12.02;70.21;102370.94;4993768;27;45251;-74
2022/03/21 03:04:35;;;;;;;;;51.50;41.50;;;;;11.97;70.02;102370.63;4976885;28;45255;-77
2022/03/21 03:07:00;;;;;;;;;49.75;39.75;;;;;11.88;70.28;102357.06;5006879;28;46031;-76
2022/03/21 03:09:26;;;;;;;;;52.25;41.25;;;;;11.88;70.87;102363.13;5034678;27;45243;-77
2022/03/21 03:11:51;;;;;;;;;55.75;44.50;;;;;11.89;70.22;102358.88;5097305;27;45385;-76
2022/03/21 03:14:17;;;;;;;;;52.00;40.25;;;;;11.82;70.58;102354.97;5097752;27;45381;-75
2022/03/21 03:16:43;;;;;;;;;51.25;39.25;;;;;11.89;71.08;102364.94;4980721;28;45417;-75
2022/03/21 03:19:08;;;;;;;;;51.00;39.00;;;;;11.88;71.06;102372.63;4993504;28;45461;-76
2022/03/21 03:21:44;;;;;;;;;50.25;39.50;;;;;11.88;70.97;102362.25;4997516;28;45504;-71
2022/03/21 03:24:11;;;;;;;;;55.25;41.25;;;;;11.90;71.20;102376.22;4994346;27;45338;-75
2022/03/21 03:26:37;;;;;;;;;54.00;43.75;;;;;11.87;70.88;102368.25;4993398;28;45429;-77
2022/03/21 03:29:03;;;;;;;;;48.75;40.00;;;;;11.88;71.65;102364.84;5050036;27;45285;-72
2022/03/21 03:31:29;;;;;;;;;52.75;42.75;;;;;11.85;71.37;102354.25;5097039;27;45274;-72
2022/03/21 03:33:56;;;;;;;;;51.75;41.00;;;;;11.89;71.38;102369.25;5027410;27;45444;-70
2022/03/21 03:36:22;;;;;;;;;52.25;40.50;;;;;11.84;71.57;102363.75;5013232;28;45391;-74
2022/03/21 03:38:48;;;;;;;;;57.75;42.75;;;;;11.87;71.59;102373.44;5013542;27;45887;-71
2022/03/21 03:41:15;;;;;;;;;47.75;38.25;;;;;11.88;71.95;102367.44;5013515;27;45303;-71
2022/03/21 03:43:43;;;;;;;;;47.75;38.75;;;;;11.92;72.04;102374.63;5013376;28;45361;-77
2022/03/21 03:46:09;;;;;;;;;47.25;38.75;;;;;11.86;71.63;102369.94;5012812;27;45425;-77
2022/03/21 03:48:34;;;;;;;;;51.75;41.00;;;;;11.88;72.27;102370.91;4993707;28;45494;-75
2022/03/21 03:51:03;;;;;;;;;54.25;41.50;;;;;11.93;71.67;102384.22;4995114;28;45337;-76
2022/03/21 03:53:29;;;;;;;;;49.75;41.75;;;;;11.93;71.65;102384.22;5011621;28;45348;-76
2022/03/21 03:55:55;;;;;;;;;50.50;41.00;;;;;11.90;72.29;102381.41;5012716;28;45282;-76
2022/03/21 03:58:21;;;;;;;;;49.50;38.00;;;;;11.91;72.68;102386.69;5013173;28;45398;-77
2022/03/21 04:00:46;;;;;;;;;55.25;42.25;;;;;11.94;72.20;102383.41;5013358;28;45503;-76
2022/03/21 04:05:56;;;;;;;;;57.50;42.25;;;;;11.96;72.28;102387.00;4998946;27;45430;-74
2022/03/21 04:08:22;;;;;;;;;46.50;38.75;;;;;11.93;72.75;102390.31;4993071;28;45334;-74
2022/03/21 04:10:48;;;;;;;;;51.75;40.00;;;;;11.96;72.57;102386.13;4993373;28;45288;-74
2022/03/21 04:13:13;;;;;;;;;48.00;38.75;;;;;11.93;72.46;102384.22;4975734;28;45657;-76
2022/03/21 04:15:39;;;;;;;;;52.75;41.00;;;;;11.96;72.25;102389.59;4992821;28;45921;-74
2022/03/21 04:18:05;;;;;;;;;52.75;41.25;;;;;11.99;72.88;102392.44;4999521;27;45284;-76
2022/03/21 04:20:31;;;;;;;;;55.50;43.25;;;;;11.95;72.63;102390.38;4986040;28;45433;-76
2022/03/21 04:22:58;;;;;;;;;44.75;38.00;;;;;12.00;72.93;102403.69;5010727;28;45226;-76
2022/03/21 04:25:24;;;;;;;;;51.75;39.50;;;;;12.00;72.98;102412.41;5012487;28;45990;-78
2022/03/21 04:27:50;;;;;;;;;52.75;42.00;;;;;12.00;72.52;102411.47;5010120;28;45303;-74
2022/03/21 04:30:16;;;;;;;;;51.75;40.00;;;;;11.97;72.31;102406.09;5014678;27;45520;-76
2022/03/21 04:32:43;;;;;;;;;53.50;41.50;;;;;11.95;72.53;102410.28;5016037;27;45386;-76
2022/03/21 04:35:10;;;;;;;;;50.50;41.25;;;;;11.95;73.13;102405.09;5015177;28;46322;-72
2022/03/21 04:37:36;;;;;;;;;47.50;39.50;;;;;11.95;72.71;102411.16;5015511;28;45239;-77
2022/03/21 04:40:02;;;;;;;;;55.00;44.25;;;;;11.93;72.42;102416.25;5015317;28;45182;-76
2022/03/21 04:42:28;;;;;;;;;49.50;38.75;;;;;11.88;73.07;102409.84;5013660;27;45311;-73
2022/03/21 04:44:54;;;;;;;;;47.00;35.50;;;;;11.81;72.87;102406.78;5015044;28;45383;-74
2022/03/21 04:47:21;;;;;;;;;55.25;42.00;;;;;11.83;73.47;102408.66;5015352;28;45367;-75
2022/03/21 04:49:47;;;;;;;;;54.75;42.50;;;;;11.72;73.71;102394.97;5015767;27;45417;-72
2022/03/21 04:52:12;;;;;;;;;50.50;41.50;;;;;11.85;74.29;102416.53;5015416;28;45216;-76
2022/03/21 04:54:39;;;;;;;;;56.25;43.50;;;;;11.86;74.11;102410.56;4995744;28;46218;-77
2022/03/21 04:57:06;;;;;;;;;48.00;41.00;;;;;11.90;74.22;102418.63;5014981;27;45212;-75
2022/03/21 04:59:33;;;;;;;;;55.75;43.50;;;;;11.97;74.67;102424.25;5013527;27;45524;-76
2022/03/21 05:01:59;;;;;;;;;22.25;18.25;;;;;11.99;74.86;102428.78;4996170;28;45350;-78
2022/03/21 05:04:26;;;;;;;;;56.75;43.50;;;;;12.01;74.79;102428.84;5002124;27;45346;-74
2022/03/21 05:06:54;;;;;;;;;56.75;46.00;;;;;12.02;74.83;102428.97;4995149;28;45883;-74
2022/03/21 05:09:20;;;;;;;;;48.25;40.50;;;;;12.01;74.91;102429.78;4995648;27;45449;-76
2022/03/21 05:11:46;;;;;;;;;56.50;43.50;;;;;12.06;73.71;102422.28;4978976;28;45487;-74
2022/03/21 05:14:11;;;;;;;;;55.25;43.25;;;;;12.02;74.60;102417.69;5011791;28;45220;-77
2022/03/21 05:16:38;;;;;;;;;55.25;43.25;;;;;12.05;74.28;102429.16;5015123;28;45288;-76
2022/03/21 05:19:04;;;;;;;;;52.00;41.25;;;;;12.01;74.27;102424.59;5014533;27;45427;-76
2022/03/21 05:21:30;;;;;;;;;51.25;41.50;;;;;12.01;74.15;102419.38;5015118;28;45421;-76
2022/03/21 05:32:07;;;;;;;;;52.25;41.00;;;;;12.08;74.78;102428.47;5014680;28;45308;-73
2022/03/21 05:37:17;;;;;;;;;47.25;38.25;;;;;12.16;74.79;102442.84;5014790;28;45527;-70
2022/03/21 05:42:27;;;;;;;;;56.75;42.75;;;;;12.12;75.41;102438.25;5013613;28;45270;-72
2022/03/21 05:44:53;;;;;;;;;52.75;41.50;;;;;12.15;75.02;102442.75;4996609;28;45606;-71
2022/03/21 05:47:19;;;;;;;;;55.25;44.25;;;;;12.15;75.06;102434.97;5010836;28;45486;-78
2022/03/21 05:49:44;;;;;;;;;50.50;41.00;;;;;12.16;74.82;102442.84;4995934;28;46867;-76
2022/03/21 05:52:10;;;;;;;;;54.50;43.25;;;;;12.16;75.07;102449.72;4994815;28;45349;-75
2022/03/21 05:54:36;;;;;;;;;52.75;43.50;;;;;12.18;75.29;102454.22;4994689;28;46098;-78
2022/03/21 05:57:02;;;;;;;;;57.25;44.25;;;;;12.20;75.06;102450.00;4994561;28;45364;-75
2022/03/21 06:02:12;;;;;;;;;51.00;42.00;;;;;12.19;75.07;102448.25;4978511;28;45519;-79
2022/03/21 06:04:38;;;;;;;;;52.25;41.50;;;;;12.18;75.43;102450.72;4994396;28;45824;-76
2022/03/21 06:07:04;;;;;;;;;50.00;41.25;;;;;12.18;75.42;102461.09;4995309;27;45334;-77
2022/03/21 06:09:29;;;;;;;;;49.00;41.25;;;;;12.19;75.98;102457.72;4995472;28;45331;-71
2022/03/21 06:11:55;;;;;;;;;53.50;42.25;;;;;12.13;75.99;102452.13;4994758;28;45504;-71
2022/03/21 06:14:21;;;;;;;;;55.50;42.75;;;;;12.16;75.96;102473.09;4996190;28;45756;-71
2022/03/21 06:16:47;;;;;;;;;53.75;41.50;;;;;12.17;75.67;102467.09;5014706;27;45226;-72
2022/03/21 06:19:14;;;;;;;;;55.25;44.75;;;;;12.15;75.60;102474.81;5014055;27;45350;-75
2022/03/21 06:21:40;;;;;;;;;53.25;41.00;;;;;12.15;76.15;102477.41;5014365;28;45674;-72
2022/03/21 06:24:05;;;;;;;;;50.75;40.00;;;;;12.14;76.29;102478.19;5013561;28;45948;-76
2022/03/21 06:26:31;;;;;;;;;57.75;44.25;;;;;12.16;76.17;102478.28;5013809;27;45441;-72
2022/03/21 06:28:56;;;;;;;;;57.00;43.50;;;;;12.18;76.22;102490.59;5012245;28;45388;-72
2022/03/21 06:31:22;;;;;;;;;55.50;43.25;;;;;12.10;75.97;102477.91;4993735;28;45646;-74
2022/03/21 06:33:47;;;;;;;;;52.25;41.00;;;;;12.16;76.69;102501.66;4975673;28;46937;-72
2022/03/21 06:36:14;;;;;;;;;49.25;40.50;;;;;12.09;76.13;102487.41;4992811;28;45477;-72
2022/03/21 06:38:40;;;;;;;;;53.75;41.25;;;;;12.13;76.97;102496.28;4992662;28;45529;-73
2022/03/21 06:41:07;;;;;;;;;53.75;40.50;;;;;12.12;77.20;102500.56;5001022;27;45560;-70
2022/03/21 06:43:33;;;;;;;;;52.00;42.00;;;;;12.12;77.09;102508.34;4993123;27;45407;-71
2022/03/21 06:45:59;;;;;;;;;56.50;43.25;;;;;12.20;77.23;102514.03;4994912;28;45261;-73
2022/03/21 06:48:27;;;;;;;;;53.00;42.00;;;;;12.19;77.20;102518.34;4994841;27;45669;-72
2022/03/21 06:50:55;;;;;;;;;49.00;40.00;;;;;12.18;77.52;102515.63;4994287;27;45574;-71
2022/03/21 06:53:22;;;;;;;;;54.50;41.75;;;;;12.20;78.26;102520.13;5006409;27;45534;-71
2022/03/21 06:55:48;;;;;;;;;56.00;42.50;;;;;12.24;78.18;102523.84;4993295;27;45959;-72
2022/03/21 06:58:15;;;;;;;;;53.50;42.50;;;;;12.24;78.31;102516.06;4994135;27;45861;-73
2022/03/21 07:00:43;;;;;;;;;55.00;43.75;;;;;12.25;77.95;102523.06;5005195;27;45543;-70
2022/03/21 07:03:09;;;;;;;;;56.50;43.50;;;;;12.32;77.93;102529.53;4976186;28;45358;-71
2022/03/21 07:05:37;;;;;;;;;55.50;42.00;;;;;12.34;77.81;102522.72;4993823;28;45356;-70
2022/03/21 07:08:04;;;;;;;;;51.75;42.75;;;;;12.36;77.52;102528.94;4991262;27;45729;-71
2022/03/21 07:10:34;;;;;;;;;53.25;43.25;;;;;12.34;78.02;102528.84;4991050;27;45350;-72
2022/03/21 07:13:07;;;;;;;;;53.00;42.25;;;;;12.43;78.25;102533.72;4994055;27;46144;-78
2022/03/21 07:15:33;;;;;;;;;55.00;42.25;;;;;12.46;78.44;102541.72;4976861;28;45464;-70
2022/03/21 07:17:59;;;;;;;;;58.25;45.75;;;;;12.41;78.40;102513.66;4999491;27;45344;-75
2022/03/21 07:20:26;;;;;;;;;52.00;43.00;;;;;12.48;78.25;102529.72;4994416;28;45612;-76
2022/03/21 07:22:56;;;;;;;;;55.75;44.00;;;;;12.57;78.47;102529.44;5033457;27;46071;-75
2022/03/21 07:25:23;;;;;;;;;51.25;40.50;;;;;12.62;78.14;102535.81;4994562;27;45548;-76
2022/03/21 07:27:49;;;;;;;;;55.00;42.25;;;;;12.65;78.26;102529.91;4996082;27;45377;-75
2022/03/21 07:30:16;;;;;;;;;58.75;45.50;;;;;12.71;78.13;102540.72;4996667;27;45590;-76
2022/03/21 07:32:44;;;;;;;;;58.00;45.75;;;;;12.75;78.17;102527.09;4993029;28;46317;-80
2022/03/21 07:35:10;;;;;;;;;58.25;47.00;;;;;12.76;78.17;102523.69;4983179;27;45754;-78
2022/03/21 07:37:43;;;;;;;;;59.25;45.00;;;;;12.78;78.38;102523.81;4995770;27;45402;-80
2022/03/21 07:40:11;;;;;;;;;54.25;45.75;;;;;12.86;78.16;102535.59;4996626;28;45311;-76
2022/03/21 07:42:42;;;;;;;;;56.25;43.00;;;;;12.95;78.10;102538.75;4981997;28;45512;-83
2022/03/21 07:47:55;;;;;;;;;56.25;45.50;;;;;13.07;77.66;102532.53;5003586;27;45680;-76
2022/03/21 07:50:23;;;;;;;;;53.25;41.00;;;;;13.09;77.96;102538.72;4975303;28;45454;-76
2022/03/21 07:52:49;;;;;;;;;58.50;46.50;;;;;13.12;78.20;102534.63;4970117;28;47563;-74
2022/03/21 07:55:15;;;;;;;;;61.25;47.00;;;;;13.22;77.65;102542.97;4995127;28;45726;-78
2022/03/21 07:57:41;;;;;;;;;58.00;46.00;;;;;13.25;77.60;102538.88;4994428;28;45476;-74
2022/03/21 08:00:12;;;;;;;;;58.25;46.75;;;;;13.31;77.52;102551.34;5068020;27;45310;-75
2022/03/21 08:02:39;;;;;;;;;56.25;45.75;;;;;13.34;77.53;102535.94;5012827;27;46204;-76
2022/03/21 08:05:05;;;;;;;;;64.25;46.25;;;;;13.41;77.25;102539.84;4996570;27;45885;-78
2022/03/21 08:07:37;;;;;;;;;57.50;46.75;;;;;13.48;77.41;102542.00;5010344;28;45326;-76
2022/03/21 08:10:03;;;;;;;;;58.00;46.25;;;;;13.49;77.37;102532.53;5012198;27;45361;-76
2022/03/21 08:12:29;;;;;;;;;58.75;46.00;;;;;13.59;77.19;102548.75;5012801;27;45556;-81
2022/03/21 08:14:56;;;;;;;;;59.50;47.00;;;;;13.37;77.54;102498.81;5010344;28;45564;-78
2022/03/21 08:17:22;;;;;;;;;65.00;47.25;;;;;13.67;77.50;102546.63;5007735;27;45592;-76
2022/03/21 08:19:48;;;;;;;;;57.75;44.50;;;;;13.74;77.27;102542.69;4990090;27;45740;-75
2022/03/21 08:22:15;;;;;;;;;61.25;47.50;;;;;13.83;77.07;102545.84;4991200;28;45681;-77
2022/03/21 08:24:41;;;;;;;;;57.00;43.00;;;;;13.93;77.54;102550.78;4995654;27;45860;-77
2022/03/21 08:27:06;;;;;;;;;58.50;45.50;;;;;13.93;76.69;102527.34;4999464;28;45422;-76
2022/03/21 08:29:33;;;;;;;;;64.25;47.00;;;;;14.10;76.87;102535.22;5012173;28;45291;-75
2022/03/21 08:31:58;;;;;;;;;61.75;47.00;;;;;14.10;76.29;102519.59;4986592;28;45985;-75
2022/03/21 08:34:24;;;;;;;;;60.25;47.25;;;;;14.25;76.15;102532.66;5000672;27;45376;-74
2022/03/21 08:36:50;;;;;;;;;58.25;44.25;;;;;14.32;76.16;102536.47;5004174;28;45522;-77
2022/03/21 08:39:16;;;;;;;;;57.25;45.00;;;;;14.34;75.75;102533.16;4970128;28;45630;-78
2022/03/21 08:41:42;;;;;;;;;51.00;43.00;;;;;14.29;75.63;102518.97;4986537;28;45494;-75
2022/03/21 08:44:08;;;;;;;;;50.00;40.00;;;;;14.40;75.59;102540.44;5004334;27;45540;-77
2022/03/21 08:46:34;;;;;;;;;51.25;38.75;;;;;14.39;75.45;102544.72;4990075;28;45362;-75
2022/03/21 08:51:46;;;;;;;;;48.00;40.25;;;;;14.53;75.88;102547.22;5011786;28;45368;-75
2022/03/21 08:54:12;;;;;;;;;53.00;42.25;;;;;14.62;75.62;102539.03;4978853;28;46030;-76
2022/03/21 08:56:38;;;;;;;;;54.50;42.00;;;;;14.76;74.62;102535.50;4991925;28;45378;-75
2022/03/21 08:59:04;;;;;;;;;52.50;41.00;;;;;14.80;73.28;102533.97;4986375;28;45617;-73
2022/03/21 09:01:29;;;;;;;;;45.50;39.00;;;;;14.86;73.27;102543.03;4987668;27;45928;-76
2022/03/21 09:03:55;;;;;;;;;39.00;33.25;;;;;14.83;72.21;102527.22;5059717;27;45805;-74
2022/03/21 09:06:21;;;;;;;;;52.00;40.25;;;;;14.95;72.43;102534.81;5056950;27;45369;-74
2022/03/21 09:08:48;;;;;;;;;50.50;39.00;;;;;15.00;72.33;102535.97;4994050;28;45479;-74
2022/03/21 09:11:14;;;;;;;;;49.75;39.25;;;;;15.03;72.52;102527.41;5002072;28;45586;-74
2022/03/21 09:13:40;;;;;;;;;50.50;39.00;;;;;14.99;71.87;102507.19;4995260;28;45322;-74
2022/03/21 09:16:06;;;;;;;;;49.00;39.00;;;;;15.22;71.61;102538.84;4991826;28;45335;-74
2022/03/21 09:18:31;;;;;;;;;50.50;40.75;;;;;15.15;71.06;102511.50;5013675;27;45508;-73
2022/03/21 09:20:57;;;;;;;;;45.50;37.25;;;;;15.25;71.08;102515.53;5065487;27;46112;-74
2022/03/21 09:23:23;;;;;;;;;40.00;34.75;;;;;15.37;69.85;102520.47;5043870;27;46509;-74
2022/03/21 09:25:49;;;;;;;;;43.75;35.50;;;;;15.37;70.54;102525.69;5025231;27;46226;-74
2022/03/21 09:28:14;;;;;;;;;43.50;37.00;;;;;15.33;69.68;102522.03;4990810;28;45396;-74
2022/03/21 09:30:40;;;;;;;;;49.75;38.75;;;;;15.35;69.69;102520.41;5001559;28;45877;-73
2022/03/21 09:33:06;;;;;;;;;38.75;33.75;;;;;15.37;69.84;102531.81;4983559;28;45455;-74
2022/03/21 09:35:31;;;;;;;;;35.25;29.50;;;;;15.34;68.01;102531.66;4998110;28;45369;-74
2022/03/21 09:37:57;;;;;;;;;31.50;29.75;;;;;15.26;68.79;102525.16;4996074;27;45566;-73
2022/03/21 09:40:24;;;;;;;;;34.50;29.00;;;;;15.24;68.79;102526.78;5014135;28;45315;-73
2022/03/21 09:42:50;;;;;;;;;33.00;29.75;;;;;15.23;68.48;102522.38;5004178;27;45362;-73
2022/03/21 09:45:16;;;;;;;;;33.00;30.00;;;;;15.18;68.19;102522.13;4995327;28;45349;-77
2022/03/21 09:50:36;;;;;;;;;35.00;31.75;;;;;15.11;68.92;102517.41;4975718;28;45359;-74
2022/03/21 09:53:06;;;;;;;;;35.75;30.50;;;;;15.11;69.01;102523.50;4998715;27;45446;-74
2022/03/21 09:55:32;;;;;;;;;30.75;30.00;;;;;15.10;69.79;102511.28;5014380;28;45261;-73
2022/03/21 09:57:58;;;;;;;;;32.50;30.00;;;;;15.16;70.13;102522.06;4996723;28;45508;-73
2022/03/21 10:00:27;;;;;;;;;29.75;28.50;;;;;15.13;69.10;102502.69;5014412;27;45398;-74
2022/03/21 10:02:53;;;;;;;;;32.00;26.25;;;;;15.20;68.74;102511.75;5014309;27;45491;-74
2022/03/21 10:05:40;;;;;;;;;28.75;27.00;;;;;15.16;69.08;102501.19;5014013;28;45186;-75
2022/03/21 10:08:27;;;;;;;;;28.50;25.75;;;;;15.26;69.61;102510.38;5014340;28;45655;-75
2022/03/21 10:11:03;;;;;;;;;25.50;25.00;;;;;15.32;68.78;102517.63;5014648;28;46165;-75
2022/03/21 10:13:36;;;;;;;;;29.50;28.00;;;;;15.35;68.28;102512.56;5014025;27;46021;-75
2022/03/21 10:16:09;;;;;;;;;28.25;26.25;;;;;15.37;67.67;102510.94;5013818;28;45735;-76
2022/03/21 10:18:36;;;;;;;;;26.75;25.75;;;;;15.36;67.91;102509.16;5014312;28;45561;-76
2022/03/21 10:21:13;;;;;;;;;24.00;23.00;;;;;15.43;68.40;102510.38;5013447;28;45769;-75
2022/03/21 10:23:40;;;;;;;;;28.00;23.75;;;;;15.34;67.37;102487.28;5014040;28;45342;-76
2022/03/21 10:26:27;;;;;;;;;28.25;24.00;;;;;15.50;67.71;102506.34;5008619;27;45452;-74
2022/03/21 10:28:58;;;;;;;;;22.75;22.50;;;;;15.52;67.50;102505.63;4994213;28;45437;-73
2022/03/21 10:31:40;;;;;;;;;29.00;26.00;;;;;15.58;66.79;102499.81;4994093;28;46430;-74
2022/03/21 10:34:16;;;;;;;;;29.75;25.75;;;;;15.60;67.03;102500.81;4976486;28;45268;-74
2022/03/21 10:37:00;;;;;;;;;29.00;22.50;;;;;15.65;67.21;102499.31;4994631;28;45718;-74
2022/03/21 10:39:26;;;;;;;;;30.50;29.50;;;;;15.66;66.22;102484.56;4976982;28;45274;-74
2022/03/21 10:42:10;;;;;;;;;35.25;30.75;;;;;15.68;66.71;102477.69;4993777;28;45337;-74
2022/03/21 10:44:37;;;;;;;;;30.50;28.50;;;;;15.79;66.52;102493.09;4993850;28;45265;-73
2022/03/21 10:47:05;;;;;;;;;21.75;21.00;;;;;15.78;66.59;102473.00;4994016;28;45271;-74
2022/03/21 10:49:43;;;;;;;;;28.25;25.75;;;;;15.85;65.97;102481.16;4994353;28;45336;-74
2022/03/21 10:52:16;;;;;;;;;25.25;24.25;;;;;15.94;66.41;102489.47;4993543;28;45728;-74
2022/03/21 10:54:48;;;;;;;;;26.50;22.00;;;;;16.00;65.75;102492.41;4993980;28;45276;-74
2022/03/21 10:57:33;;;;;;;;;25.25;22.25;;;;;16.03;65.66;102484.72;4993627;28;45366;-75
2022/03/21 11:00:18;;;;;;;;;19.75;19.75;;;;;16.09;65.05;102489.31;4993984;28;45544;-74
2022/03/21 11:03:16;;;;;;;;;19.75;18.75;;;;;16.13;64.35;102475.59;4975743;28;46273;-73
2022/03/21 11:05:44;;;;;;;;;20.50;19.00;;;;;16.20;64.46;102487.25;4993260;28;45268;-73
2022/03/21 11:08:11;;;;;;;;;20.75;19.25;;;;;16.23;63.84;102476.94;4993700;28;45224;-73
2022/03/21 11:10:37;;;;;;;;;20.00;17.50;;;;;16.25;63.79;102472.69;4993879;28;45387;-73
2022/03/21 11:13:05;;;;;;;;;19.25;16.00;;;;;16.27;63.62;102473.66;4993012;27;45893;-74
2022/03/21 11:15:33;;;;;;;;;18.25;17.00;;;;;16.30;63.41;102467.69;4975695;28;45856;-73
2022/03/21 11:17:59;;;;;;;;;24.00;18.75;;;;;16.36;63.60;102467.97;4993807;28;45319;-73
2022/03/21 11:20:26;;;;;;;;;20.75;17.75;;;;;16.41;62.71;102471.72;4994109;27;45271;-74
2022/03/21 11:22:55;;;;;;;;;22.75;19.00;;;;;16.43;62.89;102462.19;4993254;28;45426;-75
2022/03/21 11:25:23;;;;;;;;;17.75;16.25;;;;;16.44;62.73;102456.16;4993317;28;45847;-73
2022/03/21 11:28:04;;;;;;;;;18.25;16.50;;;;;16.48;63.64;102460.72;4975889;28;45425;-76
2022/03/21 11:30:48;;;;;;;;;17.25;15.00;;;;;16.50;63.37;102460.78;4994301;28;45675;-72
2022/03/21 11:33:32;;;;;;;;;17.75;14.00;;;;;16.54;62.79;102458.38;4975119;28;47497;-73
2022/03/21 11:36:05;;;;;;;;;17.50;15.00;;;;;16.60;62.47;102442.06;4993483;28;45332;-74
2022/03/21 11:38:36;;;;;;;;;16.50;11.75;;;;;16.65;62.27;102448.44;4993258;28;45372;-74
2022/03/21 11:41:21;;;;;;;;;14.00;11.75;;;;;16.69;62.23;102442.50;4993436;28;45336;-73